Terminal Aerodrome Forecast
Issued by NWS Los Angeles, CA

Home | Current Version | Previous Version | Text Only | Print | Product List | Glossary On
Versions: 1 2 3 4 5 6 7 8 9 10 11 12 13 14 15 16 17 18 19 20 21 22 23 24 25 26 27 28 29 30 31 32 33
000
FTUS46 KLOX 301400 AAC
TAFSMX
TAF AMD
KSMX 301412Z 3014/0112 07003KT 6SM BR SKC
     FM301600 VRB03KT P6SM SKC
     FM301800 29012KT P6SM SKC
     FM010400 VRB03KT P6SM SKC
     FM011000 VRB03KT 6SM HZ SKC=

USA.gov is the U.S. government's official web portal to all federal, state and local government web resources and services.